Flight Track Log - Related Links

Times and Time Zones

All times are in EDT time to prevent confusion due to time zone crossing. See the SWA1017 flight status page for this flight to view local times or setup timezone preferences in your user account.

Time Position Orientation Groundspeed Altitude Reporting Facility
EDT Latitude Longitude Course Direction KTS MPH feet Rate Location/Type
Thu 01:20:57 PM 32.8167 -96.8000 121° Southeast 187 215 2,600  Level Dallas / Fort Worth TRACON
Thu 01:21:57 PM 32.7833 -96.7500 128° Southeast 198 228 6,800 3,600 Climbing Dallas / Fort Worth TRACON
Thu 01:24:27 PM 32.9569 -96.7844 351° North 303 349 15,200 3,029 Climbing Fort Worth Center
Thu 01:25:27 PM 33.0511 -96.8186 343° North 328 377 17,400 2,521 Climbing Fort Worth Center
Thu 01:26:26 PM 33.1453 -96.8478 345° North 370 426 20,200 2,900 Climbing Fort Worth Center
Thu 01:27:27 PM 33.2600 -96.8122 15° North 374 430 23,200 2,430 Climbing Fort Worth Center
Thu 01:28:27 PM 33.3619 -96.7767 16° North 390 449 25,100 2,067 Climbing Fort Worth Center
Thu 01:29:26 PM 33.4767 -96.7386 15° North 400 460 27,300 2,450 Climbing Fort Worth Center
Thu 01:30:27 PM 33.5933 -96.7003 15° North 420 483 30,000 2,800 Climbing Fort Worth Center
Thu 01:31:26 PM 33.7078 -96.6619 16° North 420 483 32,900 1,513 Climbing Fort Worth Center
Thu 01:32:26 PM 33.8181 -96.6233 16° North 415 478 33,000 50 Climbing Fort Worth Center
Thu 01:33:27 PM 33.9347 -96.5822 16° North 415 478 33,000  Level Fort Worth Center
Thu 01:34:27 PM 34.0472 -96.5436 16° North 420 483 33,000  Level Fort Worth Center
Thu 01:35:27 PM 34.1681 -96.5047 15° North 408 470 33,000  Level Fort Worth Center
Thu 01:36:27 PM 34.2825 -96.4658 16° North 414 476 33,000  Level Fort Worth Center
Thu 01:37:27 PM 34.3969 -96.4244 17° North 414 476 33,000  Level Fort Worth Center
Thu 01:38:27 PM 34.5114 -96.3878 15° North 414 476 33,000 -200 Level Fort Worth Center
Thu 01:39:27 PM 34.6258 -96.3461 17° North 414 476 32,600 -1,600 Descending Fort Worth Center
Thu 01:40:27 PM 34.7403 -96.3042 17° North 414 476 29,800 -2,571 Descending Fort Worth Center
Thu 01:41:26 PM 34.8544 -96.2672 15° North 414 476 27,500 -2,300 Descending Fort Worth Center
Thu 01:42:27 PM 34.9544 -96.2306 17° North 414 476 25,200 -2,182 Descending Fort Worth Center
Thu 01:43:27 PM 35.0625 -96.1911 17° North 409 471 23,100 -2,100 Descending Fort Worth Center
Thu 01:44:27 PM 35.1622 -96.1564 16° North 389 448 21,000 -2,100 Descending Fort Worth Center
Thu 01:45:27 PM 35.2642 -96.1219 15° North 379 436 18,900 -1,911 Descending Fort Worth Center
Thu 01:46:42 PM 35.3844 -96.0775 17° North 368 423 16,700 -1,721 Descending Kansas City Center
Thu 01:47:43 PM 35.4831 -96.0544 11° North 354 407 15,000 -1,463 Descending Kansas City Center
Thu 01:48:45 PM 35.5744 -96.0556 359° North 330 380 13,700 -1,574 Descending Kansas City Center
Thu 01:49:45 PM 35.6747 -96.0567 359° North 313 360 11,800 -1,645 Descending Kansas City Center
Thu 01:50:49 PM 35.7664 -96.0564 360° North 311 358 10,300 -1,461 Descending Kansas City Center
Thu 01:51:40 PM 35.8358 -96.0517 North 295 339 9,000 -1,452 Descending Kansas City Center
Thu 01:52:53 PM 35.9314 -96.0458 North 295 339 7,300 -1,438 Descending Kansas City Center
Thu 01:53:41 PM 35.9964 -96.0414 North 287 330 6,100 -1,473 Descending Kansas City Center
Thu 01:54:43 PM 36.0756 -96.0339 North 282 325 4,600 -1,268 Descending Kansas City Center
Thu 01:55:44 PM 36.1422 -95.9789 34° Northeast 269 310 3,500 -541 Descending Kansas City Center
Thu 01:56:45 PM 36.1933 -95.9386 32° Northeast 200 230 3,500 -446 Level Kansas City Center
Thu 01:57:45 PM 36.2389 -95.9328 North 136 157 2,600 -1,041 Descending Kansas City Center
Thu 01:58:46 PM 36.2478 -95.8875 76° East 142 163 1,400 -797 Descending Kansas City Center
Thu 02:00:08 PM 36.2053 -95.8814 173° South 152 175 700 -512 Descending Kansas City Center

Login

Don't have an account? Register now (free) for customized features, flight alerts, and more!